Carland, Michigan
Current Conditions -  °F | °C
As of 6:35 AM on Thursday 18 Dec 2014 (Local Time) from KRNP Reporting Station
Overcast Overcast  
Wind Chill: 24°   Ceiling: 1400
Heat Index: 30°   Visibility: 10mi
Dew Point: 28°   Wind: 6mph
Humidity: 91%   Direction: 280°W
Pressure: 30.17"   Gusts: NA
Location:  43.0981°N, 84.3788°W
Report Text: KRNP 181135Z AUTO 28005KT 10SM OVC014 M01/M02 A3017 RMK AO2 T10111024
Loading
Personal Weather Stations






























Interactive Weather Map New forecast layout! Learn more

10-Day Weather Forecast

Advertisements
Track Severe Weather on mobile